Alpine, Oregon
Current Conditions -  °F | °C
As of 1:55 AM on Saturday 01 Nov 2014 (Local Time) from KCVO Reporting Station
Clear Clear  
Wind Chill: 46°   Ceiling: Unl
Heat Index: 48°   Visibility: 10mi
Dew Point: 45°   Wind: 5mph
Humidity: 87%   Direction: 290°WNW
Pressure: 29.85"   Gusts: NA
Location:  44.3398°N, 123.353°W
Report Text: KCVO 010855Z AUTO 29004KT 10SM CLR 09/07 A2985 RMK AO1 54000
Loading
Personal Weather Stations






























Interactive Weather Map
Tropical Storm Tracking
New forecast layout! Learn more

10-Day Weather Forecast

Advertisements
Track Severe Weather on mobile